Terminal Aerodrome Forecast
Issued by NWS

Home | Current Version | Previous Version | Text Only | Print | Product List | Glossary On
Versions: 1 2 3 4 5 6 7 8 9 10 11 12 13 14 15 16 17
000
FTUS44 KLZK 271900 AAA
TAFPBF
TAF AMD
KPBF 271927Z 2719/2818 18009KT P6SM FEW025 SCT250
     FM280100 17004KT P6SM SCT250
     FM281000 15004KT P6SM BKN015=

USA.gov is the U.S. government's official web portal to all federal, state and local government web resources and services.